Time;durP1;ratioP1;P1;durP2;ratioP2;P2;SDS_P1;SDS_P2;PMS_P1;PMS_P2;Temp;Humidity;BMP_temperature;BMP_pressure;BME280_temperature;BME280_humidity;BME280_pressure;Samples;Min_cycle;Max_cycle;Signal;HPM_P1;HPM_P2
2022/02/19 00:04:28;;;;;;;9.25;1.98;;;;;;;8.25;52.64;100005.16;20901132;28;20049;-72
2022/02/19 00:14:30;;;;;;;12.60;2.05;;;;;;;8.20;53.61;100017.38;20901467;28;20266;-72
2022/02/19 00:24:32;;;;;;;14.90;2.40;;;;;;;8.19;53.66;100026.06;20893865;28;20049;-72
2022/02/19 00:34:35;;;;;;;10.60;2.40;;;;;;;8.11;56.75;100025.31;20893982;28;20512;-71
2022/02/19 00:44:37;;;;;;;10.88;1.92;;;;;;;7.88;58.58;100047.28;20876312;28;20049;-72
2022/02/19 00:54:38;;;;;;;10.95;1.73;;;;;;;7.92;55.30;100055.94;20878327;28;20394;-72
2022/02/19 01:04:40;;;;;;;12.75;2.30;;;;;;;7.79;54.06;100086.47;20884319;28;20049;-71
2022/02/19 01:14:41;;;;;;;13.18;1.83;;;;;;;7.67;54.71;100105.69;20890397;28;20056;-72
2022/02/19 01:24:43;;;;;;;16.75;2.08;;;;;;;7.60;53.23;100126.59;20898036;28;20057;-71
2022/02/19 01:34:46;;;;;;;11.98;2.10;;;;;;;7.60;52.74;100145.69;20895689;28;20069;-72
2022/02/19 01:44:52;;;;;;;14.50;2.58;;;;;;;7.64;51.67;100146.53;20896577;28;20075;-72
2022/02/19 01:54:53;;;;;;;13.98;2.63;;;;;;;7.60;52.30;100144.84;20895562;28;20185;-71
2022/02/19 02:04:55;;;;;;;13.13;1.92;;;;;;;7.44;53.53;100163.19;20887105;28;20399;-71
2022/02/19 02:14:57;;;;;;;15.57;3.65;;;;;;;7.38;52.77;100173.66;20903363;28;20045;-71
2022/02/19 02:24:59;;;;;;;17.75;2.78;;;;;;;7.17;52.90;100177.22;20910299;28;20452;-70
2022/02/19 02:35:00;;;;;;;10.23;1.73;;;;;;;7.10;54.11;100198.13;20882101;28;20041;-71
2022/02/19 02:45:03;;;;;;;15.13;2.33;;;;;;;6.85;54.45;100193.03;20893534;28;20088;-71
2022/02/19 02:55:24;;;;;;;13.80;2.05;;;;;;;6.81;54.11;100224.25;20895043;28;20128;-72
2022/02/19 03:05:26;;;;;;;16.10;2.78;;;;;;;6.71;54.96;100246.84;20906340;28;20045;-71
2022/02/19 03:15:28;;;;;;;14.10;1.92;;;;;;;6.59;55.57;100267.66;20906981;28;20049;-70
2022/02/19 03:25:29;;;;;;;16.08;2.03;;;;;;;6.66;55.12;100264.19;20904771;28;20049;-71
2022/02/19 03:35:31;;;;;;;17.73;2.13;;;;;;;6.62;55.58;100285.88;20898348;28;20122;-71
2022/02/19 03:45:35;;;;;;;13.52;2.22;;;;;;;6.60;56.87;100292.81;20881668;28;20053;-72
2022/02/19 03:55:37;;;;;;;16.75;2.13;;;;;;;6.48;57.68;100316.25;20972823;23;20048;-71
2022/02/19 04:05:39;;;;;;;14.82;2.30;;;;;;;6.38;58.22;100339.66;20800150;28;20111;-70
2022/02/19 04:15:41;;;;;;;11.55;1.92;;;;;;;6.31;57.34;100357.84;20820639;28;20502;-69
2022/02/19 04:25:43;;;;;;;14.98;1.88;;;;;;;6.21;57.17;100377.75;20819871;28;20046;-69
2022/02/19 04:35:45;;;;;;;15.52;1.70;;;;;;;6.05;58.04;100391.59;20810726;28;20038;-68
2022/02/19 04:45:47;;;;;;;11.32;1.80;;;;;;;6.07;59.00;100397.66;20818428;28;20053;-68
2022/02/19 04:55:48;;;;;;;11.15;1.55;;;;;;;5.98;58.71;100428.81;20817485;28;20049;-69
2022/02/19 05:05:50;;;;;;;18.83;1.90;;;;;;;5.88;59.62;100444.34;20809463;28;20462;-69
2022/02/19 05:15:51;;;;;;;14.25;1.98;;;;;;;5.94;60.75;100453.03;20817497;28;20111;-69
2022/02/19 05:25:53;;;;;;;15.10;2.10;;;;;;;5.79;61.03;100467.69;20817740;28;20054;-70
2022/02/19 05:35:54;;;;;;;18.15;2.47;;;;;;;5.83;61.35;100471.16;20816858;28;20048;-69
2022/02/19 05:45:56;;;;;;;11.50;2.22;;;;;;;5.83;60.68;100477.22;20818355;28;20053;-69
2022/02/19 05:55:57;;;;;;;12.70;2.10;;;;;;;5.64;62.01;100483.19;20831463;28;20046;-70
2022/02/19 06:05:59;;;;;;;11.15;1.42;;;;;;;5.48;61.47;100481.38;20829393;28;20487;-69
2022/02/19 06:16:00;;;;;;;13.82;1.75;;;;;;;5.34;61.42;100495.13;20830157;28;20049;-69
2022/02/19 06:26:02;;;;;;;11.30;1.88;;;;;;;5.20;62.39;100524.44;20829482;28;20057;-70
2022/02/19 06:36:07;;;;;;;13.80;2.33;;;;;;;5.10;63.21;100537.34;20827996;28;20544;-69
2022/02/19 06:46:09;;;;;;;14.25;2.47;;;;;;;5.08;64.51;100566.75;20827747;28;20104;-70
2022/02/19 06:56:10;;;;;;;12.63;1.67;;;;;;;5.03;63.96;100595.25;20826152;28;20107;-69
2022/02/19 07:06:12;;;;;;;9.25;1.67;;;;;;;5.11;63.60;100616.06;20824750;28;20277;-70
2022/02/19 07:16:13;;;;;;;12.82;1.90;;;;;;;5.21;63.59;100628.28;20825626;28;20050;-70
2022/02/19 07:26:15;;;;;;;10.75;2.42;;;;;;;5.27;63.37;100625.75;20824567;28;20119;-69
2022/02/19 07:36:17;;;;;;;13.70;1.95;;;;;;;5.45;61.79;100637.16;20822811;28;20645;-69
2022/02/19 07:46:18;;;;;;;11.73;2.08;;;;;;;5.48;61.68;100642.38;20820622;28;20100;-70
2022/02/19 08:06:41;;;;;;;16.70;2.13;;;;;;;5.58;61.50;100678.84;20714536;28;20054;-70
2022/02/19 08:16:42;;;;;;;10.23;2.13;;;;;;;5.63;62.50;100699.66;20717783;28;20100;-69
2022/02/19 08:26:44;;;;;;;14.68;2.15;;;;;;;5.84;62.99;100709.34;20740410;28;20898;-70
2022/02/19 08:36:45;;;;;;;8.73;1.67;;;;;;;6.03;61.79;100726.88;20716556;28;20073;-70
2022/02/19 08:46:46;;;;;;;18.45;2.33;;;;;;;6.02;60.54;100735.53;20807922;28;20495;-67
2022/02/19 08:56:50;;;;;;;16.38;2.00;;;;;;;5.90;60.88;100746.69;20808149;28;20045;-72
2022/02/19 09:06:51;;;;;;;15.43;1.77;;;;;;;6.27;60.23;100752.19;20791888;28;20054;-67
2022/02/19 09:16:53;;;;;;;12.23;2.33;;;;;;;6.39;58.23;100762.69;20711387;28;20077;-65
2022/02/19 09:26:55;;;;;;;13.80;2.55;;;;;;;6.38;58.80;100773.97;20728261;28;20054;-65
2022/02/19 09:36:57;;;;;;;13.18;2.20;;;;;;;6.39;58.75;100767.03;20726374;28;20852;-65
2022/02/19 09:47:00;;;;;;;13.60;2.10;;;;;;;6.65;58.09;100769.78;20729971;28;20108;-65
2022/02/19 09:57:02;;;;;;;13.38;2.15;;;;;;;6.84;56.80;100781.19;20726299;28;20054;-66
2022/02/19 10:07:18;;;;;;;8.85;1.80;;;;;;;7.00;56.96;100787.34;20725876;28;20138;-68
2022/02/19 10:17:22;;;;;;;9.35;1.83;;;;;;;7.41;55.17;100792.72;20726745;28;20392;-69
2022/02/19 10:27:45;;;;;;;10.03;1.97;;;;;;;7.37;54.39;100797.03;20723529;28;20081;-69
2022/02/19 10:37:49;;;;;;;12.70;2.00;;;;;;;7.31;54.21;100801.38;20723295;28;20096;-68
2022/02/19 10:47:54;;;;;;;10.13;1.90;;;;;;;6.97;55.67;100809.03;20722974;28;20060;-68
2022/02/19 10:57:59;;;;;;;9.82;1.75;;;;;;;6.67;55.80;100805.38;20729095;28;20057;-69
2022/02/19 11:08:01;;;;;;;11.55;1.75;;;;;;;6.69;55.91;100815.78;20731908;28;20507;-69
2022/02/19 11:18:06;;;;;;;9.48;1.50;;;;;;;6.69;56.37;100801.03;20743184;28;20137;-68
2022/02/19 11:28:11;;;;;;;14.93;2.90;;;;;;;6.82;55.97;100801.13;20778774;28;20049;-68
2022/02/19 11:38:27;;;;;;;8.63;2.10;;;;;;;7.43;52.39;100765.81;20803646;28;20518;-68
2022/02/19 11:48:29;;;;;;;14.95;3.38;;;;;;;8.12;51.68;100754.63;20795001;28;20053;-68
2022/02/19 11:58:31;;;;;;;15.20;2.25;;;;;;;8.09;51.65;100734.59;20814012;28;20042;-68
2022/02/19 12:08:48;;;;;;;10.20;1.92;;;;;;;8.39;49.88;100719.84;20811961;28;20747;-68
2022/02/19 12:18:50;;;;;;;11.60;2.25;;;;;;;8.60;49.70;100706.75;20811811;28;20657;-67
2022/02/19 12:29:28;;;;;;;5.40;1.80;;;;;;;8.41;51.24;100692.88;20812341;28;20111;-68
2022/02/19 12:39:30;;;;;;;9.68;2.05;;;;;;;8.89;48.41;100664.88;20805396;28;20049;-67
2022/02/19 12:49:31;;;;;;;7.18;2.13;;;;;;;8.89;47.56;100622.22;20805604;28;20060;-67
2022/02/19 12:59:35;;;;;;;9.25;2.05;;;;;;;8.56;48.28;100631.06;20808621;28;20053;-67
2022/02/19 13:09:37;;;;;;;8.07;1.50;;;;;;;8.57;45.96;100607.56;20807889;28;20049;-67
2022/02/19 13:19:39;;;;;;;6.47;1.40;;;;;;;8.88;45.77;100607.44;20807565;28;20050;-67
2022/02/19 13:29:48;;;;;;;8.23;1.70;;;;;;;8.95;46.52;100620.44;20800415;28;20058;-67
2022/02/19 13:39:55;;;;;;;4.82;1.05;;;;;;;8.44;47.33;100632.88;20771506;28;20501;-67
2022/02/19 13:49:56;;;;;;;5.95;1.17;;;;;;;8.59;45.49;100631.06;20805870;28;20049;-68
2022/02/19 14:00:09;;;;;;;5.93;0.98;;;;;;;8.93;45.16;100634.41;20804740;28;20383;-68
2022/02/19 14:10:11;;;;;;;4.78;1.20;;;;;;;8.93;46.72;100632.66;20809358;28;20042;-68
2022/02/19 14:20:16;;;;;;;7.10;1.30;;;;;;;8.68;46.27;100642.34;20821202;28;20060;-67
2022/02/19 14:30:20;;;;;;;3.30;1.00;;;;;;;8.76;46.30;100634.47;20812838;28;20049;-68
2022/02/19 14:40:22;;;;;;;6.23;1.20;;;;;;;8.72;47.40;100625.81;20819139;28;20486;-68
2022/02/19 14:50:23;;;;;;;7.35;1.35;;;;;;;8.88;47.17;100621.34;20817928;28;20061;-66
2022/02/19 15:00:25;;;;;;;4.43;1.00;;;;;;;8.67;47.77;100624.06;20817168;28;20038;-66
2022/02/19 15:10:26;;;;;;;9.95;2.17;;;;;;;8.60;47.87;100612.78;20816442;28;20419;-67
2022/02/19 15:20:29;;;;;;;7.95;1.48;;;;;;;8.61;48.76;100619.75;20815093;28;20052;-67
2022/02/19 15:30:30;;;;;;;6.57;1.67;;;;;;;8.52;49.76;100618.91;20809579;28;20052;-68
2022/02/19 15:40:32;;;;;;;10.07;1.33;;;;;;;8.64;48.81;100608.44;20815295;28;20045;-68
2022/02/19 15:50:33;;;;;;;8.55;1.10;;;;;;;8.34;49.28;100605.03;20813094;28;20065;-68
2022/02/19 16:00:35;;;;;;;8.38;1.40;;;;;;;8.45;49.42;100587.63;20811548;28;20637;-68
2022/02/19 16:10:36;;;;;;;5.28;1.35;;;;;;;8.28;48.88;100578.94;20810440;28;20099;-68
2022/02/19 16:20:38;;;;;;;7.97;1.15;;;;;;;8.12;49.65;100559.03;20811940;28;20465;-68
2022/02/19 16:30:39;;;;;;;7.57;1.60;;;;;;;7.86;51.37;100546.94;20810368;28;20049;-68
2022/02/19 16:40:42;;;;;;;9.27;1.58;;;;;;;7.64;51.93;100525.25;20809895;28;20494;-68
2022/02/19 16:50:44;;;;;;;6.53;1.70;;;;;;;7.31;52.88;100523.53;20809153;28;20061;-68
2022/02/19 17:00:46;;;;;;;7.28;1.80;;;;;;;7.02;55.81;100525.28;20799058;28;20387;-68
2022/02/19 17:10:49;;;;;;;10.70;1.73;;;;;;;6.96;54.64;100526.16;20806774;28;20135;-67
2022/02/19 17:20:51;;;;;;;15.73;7.35;;;;;;;6.76;55.11;100539.13;20809451;28;20483;-68
2022/02/19 17:30:53;;;;;;;7.30;1.65;;;;;;;6.57;57.22;100532.16;20807291;28;20080;-67
2022/02/19 17:40:57;;;;;;;13.90;1.98;;;;;;;6.42;56.46;100528.66;20808754;28;20052;-67
2022/02/19 17:50:58;;;;;;;12.32;1.90;;;;;;;6.25;56.77;100534.63;20823098;28;20140;-67
2022/02/19 18:01:00;;;;;;;8.68;1.70;;;;;;;6.04;58.41;100538.03;20822245;28;20453;-67
2022/02/19 18:11:01;;;;;;;8.20;1.80;;;;;;;6.08;57.57;100544.94;20818873;28;20514;-67
2022/02/19 18:21:03;;;;;;;10.05;2.78;;;;;;;6.01;58.24;100536.25;20821609;28;20057;-67
2022/02/19 18:31:04;;;;;;;6.10;1.63;;;;;;;6.07;57.90;100527.63;20820903;28;20469;-67
2022/02/19 18:41:06;;;;;;;8.30;2.05;;;;;;;6.11;57.90;100516.38;20819876;28;20049;-67
2022/02/19 18:51:08;;;;;;;7.22;2.13;;;;;;;6.33;55.86;100505.19;20818614;28;20164;-68
2022/02/19 19:01:10;;;;;;;6.60;1.80;;;;;;;6.44;55.29;100468.81;20816218;28;20041;-68
2022/02/19 19:11:12;;;;;;;7.10;1.98;;;;;;;6.69;54.42;100467.13;20815701;28;20061;-68
2022/02/19 19:21:14;;;;;;;6.72;1.88;;;;;;;6.72;54.48;100456.72;20816113;28;20764;-68
2022/02/19 19:31:18;;;;;;;8.23;1.90;;;;;;;6.65;53.88;100434.16;20815320;28;20459;-68
2022/02/19 19:41:21;;;;;;;4.88;1.50;;;;;;;6.68;54.50;100411.63;20814613;28;20068;-68
2022/02/19 19:51:23;;;;;;;14.00;2.55;;;;;;;6.67;54.49;100414.22;20806543;28;20053;-68
2022/02/19 20:01:30;;;;;;;10.88;2.28;;;;;;;6.69;53.51;100418.53;20811256;28;20056;-68
2022/02/19 20:11:32;;;;;;;8.07;2.03;;;;;;;6.63;53.84;100421.16;20808663;28;20079;-68
2022/02/19 20:21:33;;;;;;;10.65;1.52;;;;;;;6.70;53.91;100419.41;20811859;28;20383;-67
2022/02/19 20:31:35;;;;;;;13.48;2.08;;;;;;;6.54;54.23;100415.06;20810430;28;20041;-68
2022/02/19 20:41:38;;;;;;;8.40;2.08;;;;;;;6.56;54.31;100410.72;20809628;28;20462;-67
2022/02/19 20:51:40;;;;;;;8.82;1.58;;;;;;;6.52;54.37;100403.81;20809565;28;20057;-67
2022/02/19 21:01:41;;;;;;;7.70;1.60;;;;;;;6.48;54.44;100413.34;20800986;28;20469;-67
2022/02/19 21:11:42;;;;;;;10.27;1.80;;;;;;;6.55;54.31;100427.22;20804327;28;20103;-67
2022/02/19 21:21:44;;;;;;;8.63;1.63;;;;;;;6.61;54.20;100414.19;20818974;28;20136;-68
2022/02/19 21:31:46;;;;;;;7.90;1.58;;;;;;;6.63;54.21;100405.53;20817009;28;20406;-67
2022/02/19 21:41:47;;;;;;;8.05;2.13;;;;;;;6.73;54.23;100408.16;20823473;28;20053;-67
2022/02/19 21:51:49;;;;;;;12.90;1.90;;;;;;;6.72;53.77;100422.91;20821296;28;20054;-68
2022/02/19 22:01:50;;;;;;;8.13;1.70;;;;;;;6.73;55.44;100426.38;20813680;28;20053;-67
2022/02/19 22:11:51;;;;;;;7.03;1.83;;;;;;;6.38;65.17;100425.47;20816352;28;20049;-67
2022/02/19 22:21:53;;;;;;;9.48;1.90;;;;;;;6.02;73.21;100423.63;20819952;28;20053;-68
2022/02/19 22:31:55;;;;;;;9.02;1.70;;;;;;;5.84;76.29;100423.53;20817669;28;20506;-67
2022/02/19 22:41:56;;;;;;;11.57;2.03;;;;;;;5.65;80.71;100417.38;20817509;28;20159;-66
2022/02/19 22:51:58;;;;;;;9.65;2.40;;;;;;;5.62;84.13;100432.97;20818046;28;20045;-66
2022/02/19 23:01:59;;;;;;;9.15;1.98;;;;;;;5.48;87.95;100434.63;20814819;28;20534;-66
2022/02/19 23:12:01;;;;;;;9.95;1.45;;;;;;;5.40;88.99;100438.03;20823654;28;20114;-67
2022/02/19 23:22:03;;;;;;;7.70;1.85;;;;;;;5.31;89.30;100404.22;20822336;28;20443;-68
2022/02/19 23:32:05;;;;;;;11.60;2.15;;;;;;;5.30;87.59;100384.34;20821504;28;20096;-68
2022/02/19 23:42:07;;;;;;;6.53;1.55;;;;;;;5.52;85.28;100400.91;20820479;28;20501;-68
2022/02/19 23:52:08;;;;;;;9.90;2.00;;;;;;;5.69;84.00;100385.38;20820665;28;20045;-67
